Time;durP1;ratioP1;P1;durP2;ratioP2;P2;SDS_P1;SDS_P2;PMS_P1;PMS_P2;Temp;Humidity;BMP_temperature;BMP_pressure;BME280_temperature;BME280_humidity;BME280_pressure;Samples;Min_cycle;Max_cycle;Signal;HPM_P1;HPM_P2
2022/02/13 00:00:23;;;;;;;19.00;8.93;;;;;;;-3.37;100.00;101935.36;1748020;82;21068;-66
2022/02/13 00:02:50;;;;;;;24.02;9.18;;;;;;;-3.41;100.00;101932.14;1751510;80;21165;-65
2022/02/13 00:05:17;;;;;;;21.02;8.18;;;;;;;-3.42;100.00;101930.39;1761413;80;21048;-66
2022/02/13 00:07:44;;;;;;;17.37;8.48;;;;;;;-3.44;100.00;101922.99;1747680;82;21049;-67
2022/02/13 00:10:12;;;;;;;17.60;8.43;;;;;;;-3.46;100.00;101919.45;1747596;82;21002;-66
2022/02/13 00:12:39;;;;;;;17.52;7.85;;;;;;;-3.51;100.00;101929.53;1747394;82;21078;-65
2022/02/13 00:15:07;;;;;;;24.20;9.98;;;;;;;-3.57;100.00;101925.77;1747392;82;21315;-66
2022/02/13 00:17:35;;;;;;;27.32;12.07;;;;;;;-3.63;100.00;101918.23;1762373;80;21042;-67
2022/02/13 00:20:02;;;;;;;23.32;10.38;;;;;;;-3.70;100.00;101923.89;1710163;83;21058;-65
2022/02/13 00:22:30;;;;;;;23.25;10.10;;;;;;;-3.74;100.00;101923.66;1710069;83;21027;-66
2022/02/13 00:24:57;;;;;;;20.52;9.48;;;;;;;-3.78;100.00;101923.02;1710759;83;21820;-67
2022/02/13 00:27:24;;;;;;;21.55;9.33;;;;;;;-3.84;100.00;101922.33;1776870;80;21139;-66
2022/02/13 00:29:51;;;;;;;18.37;8.35;;;;;;;-3.87;100.00;101928.58;1776706;80;21037;-66
2022/02/13 00:32:19;;;;;;;20.97;8.35;;;;;;;-3.93;100.00;101923.15;1710261;83;21057;-68
2022/02/13 00:34:48;;;;;;;16.93;7.47;;;;;;;-4.03;100.00;101923.06;1776533;80;21097;-65
2022/02/13 00:37:15;;;;;;;15.48;7.83;;;;;;;-4.10;100.00;101924.44;1776822;80;21096;-66
2022/02/13 00:39:42;;;;;;;14.63;5.45;;;;;;;-4.13;100.00;101930.72;1710280;83;21183;-66
2022/02/13 00:42:10;;;;;;;13.30;6.28;;;;;;;-4.16;100.00;101926.72;1715429;83;21065;-64
2022/02/13 00:44:37;;;;;;;15.73;6.63;;;;;;;-4.17;100.00;101930.08;1698913;83;21586;-65
2022/02/13 00:47:05;;;;;;;12.50;5.87;;;;;;;-4.18;100.00;101924.46;1699459;84;21061;-65
2022/02/13 00:49:33;;;;;;;13.53;6.10;;;;;;;-4.15;100.00;101928.47;1699687;84;21077;-65
2022/02/13 00:51:59;;;;;;;11.47;5.40;;;;;;;-4.11;100.00;101920.52;1699584;84;22049;-64
2022/02/13 00:54:26;;;;;;;18.70;6.95;;;;;;;-4.07;100.00;101918.18;1699766;84;21084;-65
2022/02/13 00:56:53;;;;;;;13.20;5.65;;;;;;;-4.02;100.00;101916.72;1699725;83;21096;-65
2022/02/13 00:59:20;;;;;;;11.70;5.42;;;;;;;-4.01;100.00;101910.75;1699766;83;21337;-65
2022/02/13 01:01:47;;;;;;;14.87;6.03;;;;;;;-3.98;100.00;101914.28;1720473;83;21514;-65
2022/02/13 01:04:13;;;;;;;14.45;5.50;;;;;;;-3.92;100.00;101915.89;1729173;82;21801;-65
2022/02/13 01:06:40;;;;;;;12.00;5.57;;;;;;;-3.89;100.00;101913.46;1728790;82;21034;-66
2022/02/13 01:09:07;;;;;;;10.58;5.70;;;;;;;-3.84;100.00;101915.48;1728876;82;21581;-66
2022/02/13 01:11:33;;;;;;;15.93;6.00;;;;;;;-3.82;100.00;101918.11;1723453;83;21042;-66
2022/02/13 01:14:00;;;;;;;14.60;6.80;;;;;;;-3.81;100.00;101920.77;1699852;83;21072;-66
2022/02/13 01:16:27;;;;;;;12.47;6.10;;;;;;;-3.81;100.00;101923.75;1699797;83;21135;-67
2022/02/13 01:18:54;;;;;;;15.50;6.40;;;;;;;-3.83;100.00;101921.50;1699697;84;21062;-66
2022/02/13 01:21:22;;;;;;;14.10;6.53;;;;;;;-3.83;100.00;101915.95;1699864;84;21121;-65
2022/02/13 01:23:48;;;;;;;13.50;5.77;;;;;;;-3.83;100.00;101913.78;1699615;83;21022;-66
2022/02/13 01:26:15;;;;;;;11.12;5.60;;;;;;;-3.85;100.00;101905.97;1700066;84;22011;-66
2022/02/13 01:28:42;;;;;;;13.30;5.85;;;;;;;-3.85;100.00;101907.67;1699684;83;21158;-66
2022/02/13 01:31:09;;;;;;;13.85;5.87;;;;;;;-3.88;100.00;101907.53;1699776;84;21581;-66
2022/02/13 01:33:36;;;;;;;16.90;5.83;;;;;;;-3.90;100.00;101913.88;1699843;84;21029;-67
2022/02/13 01:36:03;;;;;;;13.38;6.08;;;;;;;-3.88;100.00;101912.67;1699888;84;21085;-66
2022/02/13 01:38:31;;;;;;;11.77;6.00;;;;;;;-3.92;100.00;101913.32;1699975;84;21061;-67
2022/02/13 01:40:58;;;;;;;14.03;6.28;;;;;;;-3.90;100.00;101910.02;1705184;83;21129;-67
2022/02/13 01:43:26;;;;;;;13.03;6.07;;;;;;;-3.95;100.00;101898.61;1746745;82;21362;-67
2022/02/13 01:45:53;;;;;;;19.23;6.58;;;;;;;-3.96;100.00;101892.09;1749888;82;21120;-67
2022/02/13 01:48:20;;;;;;;11.88;5.65;;;;;;;-4.02;100.00;101905.14;1749898;82;21562;-66
2022/02/13 01:50:50;;;;;;;15.70;6.37;;;;;;;-4.05;100.00;101903.70;1749871;82;21038;-66
2022/02/13 01:53:16;;;;;;;12.28;5.87;;;;;;;-4.06;100.00;101904.91;1731114;82;21693;-67
2022/02/13 01:55:47;;;;;;;14.30;6.03;;;;;;;-4.09;100.00;101910.78;1719992;83;21077;-67
2022/02/13 01:58:14;;;;;;;17.17;6.70;;;;;;;-4.09;100.00;101912.48;1720027;83;21105;-66
2022/02/13 02:00:41;;;;;;;14.87;7.13;;;;;;;-4.09;100.00;101908.20;1720379;82;22135;-65
2022/02/13 02:03:07;;;;;;;13.77;7.43;;;;;;;-4.12;100.00;101908.03;1724103;82;21052;-66
2022/02/13 02:05:34;;;;;;;15.90;7.17;;;;;;;-4.10;100.00;101903.84;1720318;83;21070;-65
2022/02/13 02:08:00;;;;;;;12.70;5.57;;;;;;;-4.12;100.00;101902.88;1671053;83;22179;-65
2022/02/13 02:10:27;;;;;;;13.30;5.60;;;;;;;-4.14;100.00;101899.38;1720225;83;21034;-66
2022/02/13 02:12:54;;;;;;;14.57;6.53;;;;;;;-4.16;100.00;101906.13;1720125;83;21133;-65
2022/02/13 02:15:22;;;;;;;11.05;5.47;;;;;;;-4.20;100.00;101905.48;1720168;83;21057;-65
2022/02/13 02:17:48;;;;;;;11.93;5.03;;;;;;;-4.19;100.00;101907.23;1720075;83;21203;-66
2022/02/13 02:20:14;;;;;;;14.17;6.07;;;;;;;-4.16;100.00;101906.13;1720519;83;21022;-66
2022/02/13 02:22:53;;;;;;;14.77;6.67;;;;;;;-4.16;100.00;101916.42;1724187;82;21066;-66
2022/02/13 02:25:22;;;;;;;15.25;6.37;;;;;;;-4.13;100.00;101918.27;1720241;83;21067;-66
2022/02/13 02:27:49;;;;;;;16.73;5.97;;;;;;;-4.10;100.00;101908.99;1720138;83;21547;-66
2022/02/13 02:30:15;;;;;;;13.25;5.60;;;;;;;-4.06;100.00;101910.92;1720113;83;21606;-66
2022/02/13 02:32:41;;;;;;;14.27;5.77;;;;;;;-4.05;100.00;101906.28;1720191;83;21589;-66
2022/02/13 02:35:09;;;;;;;16.65;7.03;;;;;;;-4.07;100.00;101911.75;1720466;83;21035;-66
2022/02/13 02:37:36;;;;;;;13.70;5.97;;;;;;;-4.07;100.00;101923.33;1720148;83;21087;-66
2022/02/13 02:40:03;;;;;;;14.27;6.27;;;;;;;-4.05;100.00;101923.00;1719968;82;21099;-65
2022/02/13 02:42:30;;;;;;;13.77;6.30;;;;;;;-4.06;100.00;101925.49;1720122;83;21162;-66
2022/02/13 02:44:57;;;;;;;15.60;7.20;;;;;;;-4.06;100.00;101925.08;1719776;83;21057;-65
2022/02/13 02:47:23;;;;;;;13.30;6.03;;;;;;;-4.10;100.00;101916.72;1720105;83;21010;-65
2022/02/13 02:49:50;;;;;;;14.43;6.53;;;;;;;-4.10;100.00;101915.84;1720015;83;21010;-66
2022/02/13 02:52:18;;;;;;;13.23;5.70;;;;;;;-4.08;100.00;101906.09;1720426;83;21133;-66
2022/02/13 02:54:46;;;;;;;14.77;6.47;;;;;;;-4.14;100.00;101908.38;1719974;83;21142;-66
2022/02/13 02:57:12;;;;;;;16.97;8.08;;;;;;;-4.14;100.00;101913.91;1720015;83;21106;-66
2022/02/13 02:59:40;;;;;;;15.10;7.30;;;;;;;-4.20;100.00;101901.63;1720032;83;21124;-66
2022/02/13 03:02:06;;;;;;;16.30;7.05;;;;;;;-4.21;100.00;101903.70;1720256;83;21073;-66
2022/02/13 03:04:33;;;;;;;14.45;6.25;;;;;;;-4.24;100.00;101895.84;1720017;83;21585;-66
2022/02/13 03:06:59;;;;;;;13.33;6.50;;;;;;;-4.28;100.00;101905.48;1720351;83;21077;-67
2022/02/13 03:09:26;;;;;;;15.10;6.57;;;;;;;-4.30;100.00;101904.52;1720149;82;21011;-66
2022/02/13 03:11:53;;;;;;;12.27;5.67;;;;;;;-4.35;100.00;101902.98;1720494;82;21616;-66
2022/02/13 03:14:20;;;;;;;16.73;6.73;;;;;;;-4.39;100.00;101898.52;1719910;83;21041;-66
2022/02/13 03:16:46;;;;;;;17.03;7.70;;;;;;;-4.38;100.00;101904.53;1720129;83;21096;-66
2022/02/13 03:19:14;;;;;;;11.93;6.30;;;;;;;-4.44;100.00;101904.70;1720019;83;21924;-66
2022/02/13 03:21:41;;;;;;;16.47;7.83;;;;;;;-4.46;100.00;101905.44;1726326;82;21085;-66
2022/02/13 03:24:09;;;;;;;18.17;8.27;;;;;;;-4.48;100.00;101905.34;1741079;82;21057;-66
2022/02/13 03:26:35;;;;;;;16.85;7.92;;;;;;;-4.49;100.00;101911.27;1733816;82;21582;-65
2022/02/13 03:29:02;;;;;;;14.95;7.40;;;;;;;-4.39;100.00;101915.23;1730652;82;21122;-65
2022/02/13 03:31:29;;;;;;;17.67;7.93;;;;;;;-4.39;100.00;101910.47;1740377;82;21122;-66
2022/02/13 03:33:55;;;;;;;18.00;7.90;;;;;;;-4.43;100.00;101909.03;1718255;82;21041;-66
2022/02/13 03:36:22;;;;;;;18.00;6.50;;;;;;;-4.47;100.00;101905.81;1723924;82;21030;-65
2022/02/13 03:38:48;;;;;;;20.17;8.73;;;;;;;-4.53;100.00;101908.08;1729685;82;21059;-65
2022/02/13 03:41:15;;;;;;;15.53;7.67;;;;;;;-4.56;100.00;101906.61;1730621;82;21107;-66
2022/02/13 03:43:41;;;;;;;13.13;7.20;;;;;;;-4.60;100.00;101902.14;1709522;83;21547;-65
2022/02/13 03:46:08;;;;;;;19.93;8.53;;;;;;;-4.61;100.00;101900.35;1708684;83;21131;-66
2022/02/13 03:48:34;;;;;;;13.03;6.77;;;;;;;-4.62;100.00;101890.88;1713580;83;21088;-65
2022/02/13 03:51:00;;;;;;;15.73;7.20;;;;;;;-4.64;100.00;101896.34;1712144;83;21553;-66
2022/02/13 03:53:27;;;;;;;14.47;7.23;;;;;;;-4.64;100.00;101893.77;1764660;80;21029;-65
2022/02/13 03:55:53;;;;;;;15.50;7.70;;;;;;;-4.61;100.00;101895.21;1766827;80;22134;-66
2022/02/13 03:58:20;;;;;;;15.90;7.83;;;;;;;-4.64;100.00;101901.48;1761985;80;21031;-66
2022/02/13 04:00:47;;;;;;;13.93;6.70;;;;;;;-4.60;100.00;101903.42;1772722;80;21049;-66
2022/02/13 04:03:13;;;;;;;15.90;7.30;;;;;;;-4.65;100.00;101890.70;1703571;83;22086;-65
2022/02/13 04:05:40;;;;;;;15.77;7.97;;;;;;;-4.67;100.00;101897.07;1702227;83;21046;-65
2022/02/13 04:08:07;;;;;;;17.57;7.00;;;;;;;-4.67;100.00;101885.88;1766825;80;21138;-65
2022/02/13 04:10:34;;;;;;;17.73;7.73;;;;;;;-4.69;100.00;101895.22;1766327;80;20964;-65
2022/02/13 04:13:00;;;;;;;23.67;9.53;;;;;;;-4.65;100.00;101886.84;1763584;80;21018;-65
2022/02/13 04:15:27;;;;;;;22.13;8.60;;;;;;;-4.68;100.00;101878.98;1774192;80;21062;-65
2022/02/13 04:17:53;;;;;;;18.07;8.93;;;;;;;-4.71;100.00;101878.42;1764226;80;21037;-65
2022/02/13 04:20:20;;;;;;;13.63;7.10;;;;;;;-4.76;100.00;101870.87;1766279;80;21214;-66
2022/02/13 04:22:47;;;;;;;16.20;7.90;;;;;;;-4.80;100.00;101873.20;1753891;80;21004;-65
2022/02/13 04:25:15;;;;;;;18.77;8.03;;;;;;;-4.78;100.00;101875.45;1765914;80;21149;-68
2022/02/13 04:27:41;;;;;;;15.83;8.60;;;;;;;-4.79;100.00;101877.12;1754547;80;21051;-68
2022/02/13 04:30:11;;;;;;;20.93;8.30;;;;;;;-4.78;100.00;101869.03;1708248;83;21546;-66
2022/02/13 04:32:38;;;;;;;12.87;6.67;;;;;;;-4.81;100.00;101875.27;1696211;83;21776;-65
2022/02/13 04:35:06;;;;;;;22.97;8.73;;;;;;;-4.86;100.00;101875.91;1704964;83;21487;-65
2022/02/13 04:37:33;;;;;;;19.83;8.87;;;;;;;-4.85;100.00;101876.81;1702842;83;21095;-65
2022/02/13 04:39:59;;;;;;;12.37;6.60;;;;;;;-4.88;100.00;101874.97;1702308;83;21062;-65
2022/02/13 04:42:26;;;;;;;18.73;7.43;;;;;;;-4.91;100.00;101876.47;1762940;80;21043;-64
2022/02/13 04:44:53;;;;;;;15.67;7.43;;;;;;;-4.95;100.00;101876.69;1767894;80;21908;-65
2022/02/13 04:47:19;;;;;;;18.03;8.00;;;;;;;-4.99;100.00;101881.21;1759742;80;21078;-63
2022/02/13 04:49:46;;;;;;;22.00;9.47;;;;;;;-5.01;100.00;101876.39;1773886;80;21067;-64
2022/02/13 04:52:13;;;;;;;17.83;7.40;;;;;;;-4.99;100.00;101881.21;1775703;80;21395;-64
2022/02/13 04:54:39;;;;;;;21.67;9.47;;;;;;;-5.02;100.00;101874.60;1764355;80;21129;-67
2022/02/13 04:57:06;;;;;;;19.23;7.97;;;;;;;-4.95;100.00;101880.55;1760647;80;21667;-65
2022/02/13 04:59:35;;;;;;;17.57;8.20;;;;;;;-4.96;100.00;101874.94;1758361;80;21031;-65
2022/02/13 05:02:02;;;;;;;21.90;9.43;;;;;;;-4.90;100.00;101879.52;1765847;80;21090;-65
2022/02/13 05:04:29;;;;;;;18.70;8.27;;;;;;;-4.87;100.00;101874.15;1771376;80;21020;-66
2022/02/13 05:06:55;;;;;;;21.60;10.87;;;;;;;-4.91;100.00;101876.47;1763433;80;21532;-65
2022/02/13 05:09:23;;;;;;;23.73;10.07;;;;;;;-4.94;100.00;101878.89;1765485;80;21073;-65
2022/02/13 05:11:52;;;;;;;17.23;8.73;;;;;;;-4.95;100.00;101870.27;1769596;80;21104;-68
2022/02/13 05:14:19;;;;;;;16.97;8.83;;;;;;;-4.96;100.00;101859.94;1757610;80;21110;-68
2022/02/13 05:16:45;;;;;;;18.23;9.17;;;;;;;-4.95;100.00;101872.84;1764166;80;21122;-67
2022/02/13 05:19:11;;;;;;;19.90;9.83;;;;;;;-4.98;100.00;101871.81;1775047;80;21033;-67
2022/02/13 05:21:38;;;;;;;23.17;10.30;;;;;;;-4.99;100.00;101878.64;1761572;80;21112;-67
2022/02/13 05:24:05;;;;;;;17.93;9.00;;;;;;;-5.03;100.00;101881.84;1771597;80;21549;-68
2022/02/13 05:26:32;;;;;;;21.93;11.20;;;;;;;-5.07;100.00;101883.75;1767678;80;20997;-68
2022/02/13 05:28:59;;;;;;;20.57;9.43;;;;;;;-5.08;100.00;101878.14;1760530;80;21051;-68
2022/02/13 05:31:29;;;;;;;18.80;8.60;;;;;;;-5.10;100.00;101887.05;1764866;80;21025;-68
2022/02/13 05:33:54;;;;;;;26.53;12.00;;;;;;;-5.12;100.00;101882.62;1762090;80;21152;-68
2022/02/13 05:36:21;;;;;;;25.63;10.50;;;;;;;-5.09;100.00;101890.48;1762053;80;21061;-68
2022/02/13 05:38:47;;;;;;;23.30;11.13;;;;;;;-5.08;100.00;101892.27;1760514;80;21173;-69
2022/02/13 05:41:14;;;;;;;22.87;11.63;;;;;;;-5.02;100.00;101893.88;1764759;80;21513;-68
2022/02/13 05:43:40;;;;;;;27.17;13.23;;;;;;;-5.02;100.00;101896.44;1762461;80;21137;-69
2022/02/13 05:46:07;;;;;;;33.00;13.33;;;;;;;-5.01;100.00;101899.52;1753688;80;21155;-69
2022/02/13 05:48:34;;;;;;;38.53;14.67;;;;;;;-4.94;100.00;101895.59;1755652;80;21044;-67
2022/02/13 05:51:01;;;;;;;32.80;14.97;;;;;;;-4.93;100.00;101900.80;1753685;80;21052;-68
2022/02/13 05:53:28;;;;;;;35.77;14.40;;;;;;;-4.89;100.00;101904.02;1745634;80;21094;-68
2022/02/13 05:55:55;;;;;;;32.00;14.90;;;;;;;-4.87;100.00;101910.12;1753113;80;21534;-68
2022/02/13 05:58:22;;;;;;;42.47;18.57;;;;;;;-4.86;100.00;101906.74;1756579;80;21112;-68
2022/02/13 06:00:48;;;;;;;36.70;17.60;;;;;;;-4.79;100.00;101910.94;1705821;82;21145;-69
2022/02/13 06:03:14;;;;;;;48.03;20.73;;;;;;;-4.77;100.00;101909.34;1755346;80;21102;-69
2022/02/13 06:05:42;;;;;;;47.80;20.27;;;;;;;-4.74;100.00;101906.92;1764518;80;21018;-69
2022/02/13 06:08:10;;;;;;;50.60;21.77;;;;;;;-4.71;100.00;101903.25;1765201;80;21019;-68
2022/02/13 06:10:37;;;;;;;52.00;23.03;;;;;;;-4.68;100.00;101896.57;1755586;80;21118;-68
2022/02/13 06:13:03;;;;;;;51.97;23.83;;;;;;;-4.64;100.00;101900.20;1753814;80;21550;-69
2022/02/13 06:15:31;;;;;;;48.63;20.97;;;;;;;-4.58;100.00;101896.64;1757620;80;21089;-69
2022/02/13 06:17:58;;;;;;;44.97;21.47;;;;;;;-4.43;100.00;101897.45;1762882;80;21497;-68
2022/02/13 06:20:24;;;;;;;41.90;18.35;;;;;;;-3.98;100.00;101894.98;1701757;83;21007;-68
2022/02/13 06:22:51;;;;;;;41.20;19.62;;;;;;;-3.62;100.00;101899.38;1693195;83;21273;-68
2022/02/13 06:25:17;;;;;;;36.55;18.40;;;;;;;-3.31;100.00;101889.67;1757267;80;21100;-68
2022/02/13 06:27:44;;;;;;;32.25;15.45;;;;;;;-2.63;100.00;101889.81;1754060;80;21116;-68
2022/02/13 06:30:12;;;;;;;39.60;17.12;;;;;;;-1.80;100.00;101875.30;1706239;83;21486;-68
2022/02/13 06:32:40;;;;;;;38.92;17.92;;;;;;;-0.94;100.00;101873.55;1760108;80;21021;-68
2022/02/13 06:35:07;;;;;;;36.73;17.77;;;;;;;-0.29;100.00;101858.23;1748668;80;21222;-69
2022/02/13 06:37:34;;;;;;;36.00;18.20;;;;;;;0.36;100.00;101860.39;1754278;80;21014;-68
2022/02/13 06:40:00;;;;;;;38.38;16.57;;;;;;;1.78;100.00;101860.25;1753985;80;21564;-69
2022/02/13 06:42:27;;;;;;;34.00;17.32;;;;;;;1.78;100.00;101860.25;1758854;80;21116;-69
2022/02/13 06:44:54;;;;;;;33.10;16.73;;;;;;;2.29;100.00;101862.42;1696584;83;21112;-70
2022/02/13 06:47:20;;;;;;;28.12;16.42;;;;;;;2.75;100.00;101861.33;1757730;80;21137;-68
2022/02/13 06:49:47;;;;;;;33.05;16.60;;;;;;;3.25;100.00;101862.86;1760140;80;21416;-68
2022/02/13 06:52:13;;;;;;;32.55;14.55;;;;;;;3.80;100.00;101860.03;1773371;80;22253;-69
2022/02/13 06:54:40;;;;;;;36.45;17.37;;;;;;;4.27;100.00;101858.67;1703686;83;21098;-70
2022/02/13 06:57:07;;;;;;;37.65;17.30;;;;;;;4.70;91.88;101854.56;1741836;80;21023;-70
2022/02/13 06:59:33;;;;;;;31.82;15.85;;;;;;;5.08;89.92;101856.38;1758612;80;21089;-69
2022/02/13 07:02:00;;;;;;;29.07;15.23;;;;;;;5.15;85.49;101852.98;1757115;80;21147;-68
2022/02/13 07:04:27;;;;;;;28.62;14.63;;;;;;;5.44;83.67;101855.97;1759733;80;21036;-68
2022/02/13 07:06:53;;;;;;;26.60;14.70;;;;;;;5.81;84.99;101865.95;1747928;80;21192;-69
2022/02/13 07:09:20;;;;;;;24.72;14.55;;;;;;;6.19;79.97;101861.54;1761147;80;21104;-68
2022/02/13 07:11:46;;;;;;;24.15;13.30;;;;;;;6.65;77.40;101861.49;1761692;80;22225;-69
2022/02/13 07:14:13;;;;;;;21.75;12.68;;;;;;;6.88;76.17;101864.25;1757064;80;21081;-69
2022/02/13 07:16:39;;;;;;;26.23;12.50;;;;;;;6.78;67.90;101842.79;1765231;80;21509;-69
2022/02/13 07:19:06;;;;;;;22.62;12.05;;;;;;;6.76;65.14;101860.67;1755353;80;22212;-70
2022/02/13 07:21:33;;;;;;;22.13;11.25;;;;;;;6.68;60.01;101861.50;1706944;83;21094;-68
2022/02/13 07:23:59;;;;;;;29.30;10.78;;;;;;;6.47;57.46;101856.99;1752294;79;21105;-70
2022/02/13 07:26:25;;;;;;;22.10;11.05;;;;;;;6.50;60.64;101867.91;1701885;83;21096;-69
2022/02/13 07:29:01;;;;;;;21.00;10.23;;;;;;;6.56;56.53;101861.42;1765349;80;21084;-70
2022/02/13 07:31:30;;;;;;;26.17;11.08;;;;;;;6.78;60.49;101859.81;1769544;80;21606;-69
2022/02/13 07:33:57;;;;;;;25.25;10.85;;;;;;;6.75;57.23;101853.70;1749818;80;21048;-70
2022/02/13 07:36:23;;;;;;;21.97;10.10;;;;;;;6.55;54.57;101865.33;1765433;80;21884;-69
2022/02/13 07:38:50;;;;;;;22.30;10.25;;;;;;;6.61;58.05;101857.09;1756474;80;21028;-70
2022/02/13 07:41:16;;;;;;;21.93;9.80;;;;;;;6.61;53.44;101862.33;1749412;80;21073;-70
2022/02/13 07:43:43;;;;;;;20.00;9.80;;;;;;;6.98;55.61;101854.70;1748328;80;21279;-70
2022/02/13 07:46:09;;;;;;;21.70;9.73;;;;;;;7.47;56.89;101852.28;1767958;80;21092;-70
2022/02/13 07:48:37;;;;;;;21.20;9.48;;;;;;;7.72;50.72;101849.30;1761566;80;21051;-70
2022/02/13 07:51:04;;;;;;;20.37;9.55;;;;;;;7.98;55.71;101849.77;1761695;80;21024;-70
2022/02/13 07:53:32;;;;;;;18.12;8.18;;;;;;;8.41;52.72;101852.45;1762429;80;21114;-70
2022/02/13 07:55:59;;;;;;;12.25;6.90;;;;;;;8.77;49.48;101848.04;1765727;80;21047;-70
2022/02/13 07:58:30;;;;;;;15.75;7.12;;;;;;;9.05;50.11;101840.08;1764792;80;21083;-69
2022/02/13 08:00:53;;;;;;;16.93;7.30;;;;;;;9.33;46.38;101832.50;1703757;83;22227;-69
2022/02/13 08:03:21;;;;;;;14.95;7.40;;;;;;;9.56;48.87;101835.02;1767305;80;21022;-70
2022/02/13 08:05:48;;;;;;;16.55;8.90;;;;;;;9.78;46.28;101825.24;1774212;80;21057;-70
2022/02/13 08:08:15;;;;;;;14.95;6.97;;;;;;;10.08;45.19;101824.59;1756040;80;21091;-70
2022/02/13 08:10:42;;;;;;;13.85;6.15;;;;;;;10.40;43.67;101824.77;1758795;80;21069;-71
2022/02/13 08:13:09;;;;;;;11.15;6.35;;;;;;;10.31;41.45;101820.91;1764473;80;21497;-70
2022/02/13 08:15:37;;;;;;;14.23;6.67;;;;;;;10.24;42.65;101818.31;1758147;80;21456;-70
2022/02/13 08:18:13;;;;;;;12.20;5.50;;;;;;;9.94;42.20;101825.11;1756504;80;21091;-70
2022/02/13 08:20:40;;;;;;;15.30;6.78;;;;;;;9.53;40.27;101822.34;1763026;80;21089;-71
2022/02/13 08:23:08;;;;;;;14.63;6.83;;;;;;;8.88;43.84;101815.15;1763551;80;21509;-70
2022/02/13 08:25:39;;;;;;;14.47;6.08;;;;;;;8.25;44.73;101819.17;1754146;80;21487;-70
2022/02/13 08:28:06;;;;;;;11.53;5.42;;;;;;;8.18;43.46;101816.98;1755835;80;21184;-70
2022/02/13 08:30:32;;;;;;;16.32;6.83;;;;;;;8.23;44.62;101820.92;1759401;80;21140;-69
2022/02/13 08:33:00;;;;;;;13.95;6.50;;;;;;;8.08;43.39;101814.81;1765889;80;21082;-70
2022/02/13 08:35:26;;;;;;;14.98;6.20;;;;;;;8.07;43.37;101822.67;1765766;80;21046;-70
2022/02/13 08:37:52;;;;;;;17.15;7.42;;;;;;;7.92;46.29;101813.05;1705994;83;21840;-70
2022/02/13 08:40:19;;;;;;;16.23;7.28;;;;;;;8.23;44.06;101817.86;1757836;80;21144;-71
2022/02/13 08:42:46;;;;;;;19.07;7.78;;;;;;;8.53;44.30;101806.92;1749090;80;21050;-70
2022/02/13 08:45:14;;;;;;;21.07;7.67;;;;;;;8.88;42.55;101801.59;1758647;80;21037;-71
2022/02/13 08:47:40;;;;;;;16.23;7.65;;;;;;;9.32;41.52;101811.05;1754109;79;21158;-70
2022/02/13 08:50:09;;;;;;;17.32;7.28;;;;;;;9.37;42.39;101809.27;1703399;83;21609;-69
2022/02/13 08:52:36;;;;;;;15.32;7.45;;;;;;;9.82;41.04;101798.03;1761747;80;21017;-71
2022/02/13 08:58:01;;;;;;;14.10;7.92;;;;;;;10.36;39.84;101795.42;1837425;76;22686;-70
2022/02/13 09:00:27;;;;;;;19.02;9.03;;;;;;;9.76;39.36;101805.96;1798015;78;21045;-71
2022/02/13 09:02:54;;;;;;;18.77;9.50;;;;;;;9.35;41.10;101800.50;1792800;79;21513;-70
2022/02/13 09:05:20;;;;;;;22.22;8.93;;;;;;;8.93;41.08;101802.90;1796004;79;21037;-69
2022/02/13 09:07:48;;;;;;;15.35;8.10;;;;;;;8.86;42.42;101795.47;1791869;79;21558;-70
2022/02/13 09:10:16;;;;;;;21.65;9.95;;;;;;;8.90;43.44;101798.50;1791258;79;21042;-70
2022/02/13 09:12:43;;;;;;;22.40;9.45;;;;;;;9.08;42.40;101800.19;1799361;79;21025;-71
2022/02/13 09:15:10;;;;;;;20.80;8.75;;;;;;;9.30;42.66;101792.22;1787368;79;21105;-71
2022/02/13 09:17:36;;;;;;;18.55;9.20;;;;;;;9.52;42.60;101796.91;1784126;79;21018;-70
2022/02/13 09:20:04;;;;;;;20.70;9.40;;;;;;;9.63;40.73;101792.45;1799891;79;21053;-72
2022/02/13 09:22:31;;;;;;;17.05;8.60;;;;;;;9.60;43.34;101788.53;1790233;79;21069;-71
2022/02/13 09:24:58;;;;;;;15.90;8.15;;;;;;;9.74;40.53;101787.99;1785914;79;20994;-71
2022/02/13 09:27:24;;;;;;;14.63;7.62;;;;;;;9.74;40.32;101790.63;1780982;79;21649;-71
2022/02/13 09:29:52;;;;;;;18.07;9.10;;;;;;;9.51;41.92;101779.39;1760072;80;21215;-72
2022/02/13 09:32:19;;;;;;;14.40;7.37;;;;;;;9.70;40.58;101779.69;1760841;80;21644;-70
2022/02/13 09:34:46;;;;;;;12.43;6.53;;;;;;;9.92;44.24;101783.49;1761962;81;21081;-72
2022/02/13 09:37:12;;;;;;;14.68;6.62;;;;;;;10.01;39.44;101787.36;1761129;80;21136;-71
2022/02/13 09:39:40;;;;;;;12.55;6.12;;;;;;;10.07;38.72;101780.71;1753910;80;21211;-72
2022/02/13 09:42:06;;;;;;;12.60;5.47;;;;;;;9.64;38.65;101775.80;1761441;80;21051;-72
2022/02/13 09:44:34;;;;;;;12.88;5.67;;;;;;;8.97;39.15;101775.29;1759031;80;21045;-69
2022/02/13 09:47:00;;;;;;;12.10;5.75;;;;;;;8.84;41.33;101780.15;1765007;80;21049;-71
2022/02/13 09:49:26;;;;;;;12.07;5.80;;;;;;;8.93;41.51;101772.23;1747630;81;21015;-70
2022/02/13 09:51:53;;;;;;;11.40;5.03;;;;;;;9.03;40.47;101769.98;1759444;80;21114;-71
2022/02/13 09:54:20;;;;;;;12.65;5.60;;;;;;;8.85;41.28;101763.94;1759905;80;21018;-70
2022/02/13 09:56:50;;;;;;;12.93;5.83;;;;;;;8.74;40.74;101766.18;1762674;80;21058;-71
2022/02/13 09:59:17;;;;;;;12.73;5.62;;;;;;;8.73;41.52;101751.73;1731885;81;21092;-70
2022/02/13 10:01:47;;;;;;;14.38;5.53;;;;;;;8.90;41.09;101757.77;1755106;81;21073;-70
2022/02/13 10:04:13;;;;;;;11.48;5.80;;;;;;;8.92;40.35;101749.45;1750118;81;21161;-71
2022/02/13 10:06:41;;;;;;;19.65;6.30;;;;;;;8.89;42.56;101742.91;1747389;81;21077;-73
2022/02/13 10:09:09;;;;;;;11.83;6.20;;;;;;;9.29;40.83;101733.94;1748326;81;21026;-73
2022/02/13 10:11:39;;;;;;;12.53;6.37;;;;;;;9.71;40.51;101731.87;1752868;81;21045;-71
2022/02/13 10:14:14;;;;;;;12.85;5.75;;;;;;;9.68;41.25;101741.98;1760501;81;21112;-70
2022/02/13 10:16:46;;;;;;;11.30;5.33;;;;;;;9.79;39.25;101730.94;1742865;81;22239;-72
2022/02/13 10:19:16;;;;;;;11.20;5.28;;;;;;;10.08;40.24;101722.80;1730503;81;21031;-69
2022/02/13 10:21:51;;;;;;;11.83;5.37;;;;;;;10.05;39.16;101726.78;1740215;81;21023;-72
2022/02/13 10:24:33;;;;;;;14.98;5.97;;;;;;;10.02;37.89;101720.66;1747290;81;21019;-71
2022/02/13 10:27:08;;;;;;;15.30;5.83;;;;;;;10.11;39.83;101714.00;1758696;81;21746;-71
2022/02/13 10:29:46;;;;;;;9.25;4.72;;;;;;;10.33;38.60;101705.89;1752931;81;21950;-71
2022/02/13 10:32:28;;;;;;;13.38;4.67;;;;;;;10.63;37.72;101700.30;1730292;81;21066;-71
2022/02/13 10:35:10;;;;;;;9.95;4.90;;;;;;;10.78;37.64;101691.77;1745596;81;25047;-71
2022/02/13 10:37:47;;;;;;;10.93;4.80;;;;;;;10.60;36.30;101691.55;1751583;80;21116;-71
2022/02/13 10:40:21;;;;;;;11.65;4.55;;;;;;;10.00;37.09;101698.30;1757361;81;21105;-71
2022/02/13 10:42:48;;;;;;;12.15;5.22;;;;;;;9.68;40.13;101695.95;1752404;81;21232;-70
2022/02/13 10:45:26;;;;;;;11.18;4.85;;;;;;;9.87;38.83;101694.06;1758192;81;21518;-70
2022/02/13 10:47:57;;;;;;;11.18;4.75;;;;;;;9.95;38.25;101693.98;1749437;80;21008;-70
2022/02/13 10:50:23;;;;;;;;;;;;;;;9.76;40.51;101688.88;1764873;81;21209;-72
2022/02/13 10:52:53;;;;;;;10.08;4.80;;;;;;;9.54;38.05;101680.28;1754347;81;20168;-72
2022/02/13 10:55:20;;;;;;;10.05;4.75;;;;;;;9.26;39.43;101682.25;1754033;81;21093;-72
2022/02/13 10:57:46;;;;;;;11.30;5.22;;;;;;;9.18;40.66;101670.94;1746220;81;21030;-71
2022/02/13 11:00:16;;;;;;;8.85;4.85;;;;;;;9.55;38.79;101673.30;1754734;81;21549;-72
2022/02/13 11:02:47;;;;;;;10.78;5.03;;;;;;;9.40;39.69;101671.19;1753465;80;21129;-71
2022/02/13 11:05:14;;;;;;;7.92;4.47;;;;;;;9.09;39.95;101664.39;1758242;80;21051;-71
2022/02/13 11:07:44;;;;;;;8.75;4.62;;;;;;;9.33;39.53;101664.23;1750534;81;21532;-71
2022/02/13 11:10:25;;;;;;;7.45;3.90;;;;;;;9.32;40.48;101669.52;1742407;81;21085;-71
2022/02/13 11:12:58;;;;;;;12.90;5.03;;;;;;;8.90;39.25;101650.05;1752034;81;21116;-71
2022/02/13 11:15:28;;;;;;;12.50;6.00;;;;;;;8.55;40.50;101657.67;1745711;81;21125;-71
2022/02/13 11:18:04;;;;;;;6.95;3.17;;;;;;;8.34;41.08;101656.42;1738359;80;21554;-71